Bettles Field, AK

7:05 PM AKDT on March 25, 2017 (GMT -0800)
Bettles | | Change Station

Elev 643 ft 66.92 °N, 151.53 °W | Updated 12 minutes ago

Clear
Clear
15 °F
Feels Like 15 °F
N
0
Wind Variable Wind from North

Today
High -- | Low -- °F
--% Chance of Precip.
Yesterday
High -- | Low -- °F
Precip. -- in
Pressure 30.00 in
Visibility 10.0 miles
Clouds Clear
Dew Point -7 °F
Humidity 37%
Rainfall 0.00 in
Snow Depth Not available.
7:43 AM 8:41 PM
Waning Crescent, 5% visible
METAR PABT 260253Z 00000KT 10SM CLR M09/M22 A2993 RMK AO2 SLP158 T10941217 56009
Pressure 30.00 in
Visibility 10.0 miles
Clouds Clear
Dew Point -7 °F
Humidity 37%
Rainfall 0.00 in
Snow Depth Not available.
7:43 AM 8:41 PM
Waning Crescent, 5% visible
METAR PABT 260253Z 00000KT 10SM CLR M09/M22 A2993 RMK AO2 SLP158 T10941217 56009

Get Severe Weather Alerts

Thanks for signing up!

Be on the lookout for a verification email in your inbox.

You'll start receiving the daily forecast at 8 AM.

×

10-Day Weather Forecast

Almanac

Astronomy

Mar. 25, 2017 Rise Set
Actual Time
Civil Twilight
Nautical Twilight
Astronomical Twilight
Moon
Length of Visible Light
Length of Day
Tomorrow will be .
, % of the Moon is Illuminated

Today's Extremes

State Highs State Lows

Community

WunderPhotos

Upload Photos

1,962,540 photos uploaded!

WunderBlog® & News

Nearby

Air Quality

  Air Quality AQ Index Pollutant
Not available.

Snow Depth

Station Depth Elevation

Earthquake Activity

City Distance Mag. Time & Date
Minimum magnitude displayed is 2.5.

Earthquake Activity

City Distance Mag. Time & Date
Minimum magnitude displayed is 2.5.

Coastal Water Temperatures

Place Temperature

Stations

Nearby Weather Stations

Station Location Temp. Windchill Dew Point Humidity Wind Precip. Elev Updated Type
                   

Watches & Warnings

There are currently no watches in effect.